sensor_id;sensor_type;location;lat;lon;timestamp;P1;durP1;ratioP1;P2;durP2;ratioP2
49392;SDS011;35268;42.642;23.308;2024-02-15T00:01:51;11.18;;;6.30;;
49392;SDS011;35268;42.642;23.308;2024-02-15T00:04:16;13.23;;;6.30;;
49392;SDS011;35268;42.642;23.308;2024-02-15T00:06:44;9.48;;;5.90;;
49392;SDS011;35268;42.642;23.308;2024-02-15T00:09:09;13.43;;;6.45;;
49392;SDS011;35268;42.642;23.308;2024-02-15T00:11:35;12.50;;;6.85;;
49392;SDS011;35268;42.642;23.308;2024-02-15T00:14:01;15.30;;;6.55;;
49392;SDS011;35268;42.642;23.308;2024-02-15T00:16:26;12.73;;;6.00;;
49392;SDS011;35268;42.642;23.308;2024-02-15T00:18:52;13.30;;;6.32;;
49392;SDS011;35268;42.642;23.308;2024-02-15T00:21:20;10.45;;;5.95;;
49392;SDS011;35268;42.642;23.308;2024-02-15T00:23:46;9.98;;;5.47;;
49392;SDS011;35268;42.642;23.308;2024-02-15T00:26:12;13.57;;;6.82;;
49392;SDS011;35268;42.642;23.308;2024-02-15T00:28:37;14.57;;;6.15;;
49392;SDS011;35268;42.642;23.308;2024-02-15T00:31:03;14.63;;;5.95;;
49392;SDS011;35268;42.642;23.308;2024-02-15T00:33:28;11.00;;;5.40;;
49392;SDS011;35268;42.642;23.308;2024-02-15T00:35:54;13.15;;;6.15;;
49392;SDS011;35268;42.642;23.308;2024-02-15T00:38:19;9.77;;;5.70;;
49392;SDS011;35268;42.642;23.308;2024-02-15T00:40:45;11.40;;;6.28;;
49392;SDS011;35268;42.642;23.308;2024-02-15T00:43:10;11.60;;;5.72;;
49392;SDS011;35268;42.642;23.308;2024-02-15T00:45:36;8.23;;;5.18;;
49392;SDS011;35268;42.642;23.308;2024-02-15T00:48:01;10.85;;;6.18;;
49392;SDS011;35268;42.642;23.308;2024-02-15T00:50:27;9.98;;;5.85;;
49392;SDS011;35268;42.642;23.308;2024-02-15T00:52:52;13.35;;;6.38;;
49392;SDS011;35268;42.642;23.308;2024-02-15T00:55:18;10.38;;;5.45;;
49392;SDS011;35268;42.642;23.308;2024-02-15T00:57:44;12.90;;;5.53;;
49392;SDS011;35268;42.642;23.308;2024-02-15T01:00:09;11.10;;;5.90;;
49392;SDS011;35268;42.642;23.308;2024-02-15T01:02:35;13.07;;;5.35;;
49392;SDS011;35268;42.642;23.308;2024-02-15T01:05:01;11.80;;;6.07;;
49392;SDS011;35268;42.642;23.308;2024-02-15T01:07:26;8.05;;;4.93;;
49392;SDS011;35268;42.642;23.308;2024-02-15T01:09:52;9.15;;;5.53;;
49392;SDS011;35268;42.642;23.308;2024-02-15T01:12:18;9.27;;;5.32;;
49392;SDS011;35268;42.642;23.308;2024-02-15T01:14:43;10.90;;;5.40;;
49392;SDS011;35268;42.642;23.308;2024-02-15T01:17:08;13.65;;;5.85;;
49392;SDS011;35268;42.642;23.308;2024-02-15T01:19:34;11.65;;;5.78;;
49392;SDS011;35268;42.642;23.308;2024-02-15T01:22:00;9.48;;;5.18;;
49392;SDS011;35268;42.642;23.308;2024-02-15T01:24:25;11.85;;;5.88;;
49392;SDS011;35268;42.642;23.308;2024-02-15T01:26:51;10.48;;;5.68;;
49392;SDS011;35268;42.642;23.308;2024-02-15T01:29:18;13.23;;;5.68;;
49392;SDS011;35268;42.642;23.308;2024-02-15T01:31:43;12.27;;;5.70;;
49392;SDS011;35268;42.642;23.308;2024-02-15T01:34:09;12.75;;;5.40;;
49392;SDS011;35268;42.642;23.308;2024-02-15T01:36:35;9.60;;;5.60;;
49392;SDS011;35268;42.642;23.308;2024-02-15T01:39:00;12.88;;;5.38;;
49392;SDS011;35268;42.642;23.308;2024-02-15T01:41:26;15.02;;;7.25;;
49392;SDS011;35268;42.642;23.308;2024-02-15T01:43:52;16.25;;;5.78;;
49392;SDS011;35268;42.642;23.308;2024-02-15T01:46:17;13.93;;;6.50;;
49392;SDS011;35268;42.642;23.308;2024-02-15T01:48:44;11.60;;;6.13;;
49392;SDS011;35268;42.642;23.308;2024-02-15T01:51:11;13.52;;;5.75;;
49392;SDS011;35268;42.642;23.308;2024-02-15T01:53:40;14.02;;;6.05;;
49392;SDS011;35268;42.642;23.308;2024-02-15T01:56:07;14.65;;;6.45;;
49392;SDS011;35268;42.642;23.308;2024-02-15T01:58:32;12.45;;;6.05;;
49392;SDS011;35268;42.642;23.308;2024-02-15T02:00:59;10.63;;;6.22;;
49392;SDS011;35268;42.642;23.308;2024-02-15T02:03:26;13.85;;;5.93;;
49392;SDS011;35268;42.642;23.308;2024-02-15T02:05:52;11.43;;;6.13;;
49392;SDS011;35268;42.642;23.308;2024-02-15T02:08:17;12.55;;;5.70;;
49392;SDS011;35268;42.642;23.308;2024-02-15T02:10:43;11.20;;;6.57;;
49392;SDS011;35268;42.642;23.308;2024-02-15T02:13:10;11.15;;;5.55;;
49392;SDS011;35268;42.642;23.308;2024-02-15T02:15:36;11.38;;;6.07;;
49392;SDS011;35268;42.642;23.308;2024-02-15T02:18:02;15.32;;;6.18;;
49392;SDS011;35268;42.642;23.308;2024-02-15T02:20:31;13.60;;;6.85;;
49392;SDS011;35268;42.642;23.308;2024-02-15T02:23:07;14.80;;;6.18;;
49392;SDS011;35268;42.642;23.308;2024-02-15T02:25:38;17.23;;;6.20;;
49392;SDS011;35268;42.642;23.308;2024-02-15T02:28:04;12.40;;;6.18;;
49392;SDS011;35268;42.642;23.308;2024-02-15T02:30:32;14.23;;;6.78;;
49392;SDS011;35268;42.642;23.308;2024-02-15T02:32:57;10.27;;;5.97;;
49392;SDS011;35268;42.642;23.308;2024-02-15T02:35:24;10.63;;;5.47;;
49392;SDS011;35268;42.642;23.308;2024-02-15T02:37:50;12.00;;;5.88;;
49392;SDS011;35268;42.642;23.308;2024-02-15T02:40:18;12.32;;;5.97;;
49392;SDS011;35268;42.642;23.308;2024-02-15T02:42:50;11.80;;;5.72;;
49392;SDS011;35268;42.642;23.308;2024-02-15T02:45:17;13.20;;;6.47;;
49392;SDS011;35268;42.642;23.308;2024-02-15T02:47:45;10.65;;;6.50;;
49392;SDS011;35268;42.642;23.308;2024-02-15T02:50:12;11.00;;;5.88;;
49392;SDS011;35268;42.642;23.308;2024-02-15T02:52:38;14.13;;;5.95;;
49392;SDS011;35268;42.642;23.308;2024-02-15T02:55:04;13.77;;;6.30;;
49392;SDS011;35268;42.642;23.308;2024-02-15T02:57:33;21.05;;;5.90;;
49392;SDS011;35268;42.642;23.308;2024-02-15T03:00:06;11.77;;;5.95;;
49392;SDS011;35268;42.642;23.308;2024-02-15T03:02:36;14.10;;;7.63;;
49392;SDS011;35268;42.642;23.308;2024-02-15T03:05:03;13.57;;;5.97;;
49392;SDS011;35268;42.642;23.308;2024-02-15T03:07:29;12.63;;;6.25;;
49392;SDS011;35268;42.642;23.308;2024-02-15T03:09:57;8.52;;;5.20;;
49392;SDS011;35268;42.642;23.308;2024-02-15T03:12:23;10.90;;;6.03;;
49392;SDS011;35268;42.642;23.308;2024-02-15T03:14:49;11.90;;;6.43;;
49392;SDS011;35268;42.642;23.308;2024-02-15T03:17:15;14.23;;;6.65;;
49392;SDS011;35268;42.642;23.308;2024-02-15T03:19:41;10.70;;;6.32;;
49392;SDS011;35268;42.642;23.308;2024-02-15T03:22:06;15.90;;;6.68;;
49392;SDS011;35268;42.642;23.308;2024-02-15T03:24:31;10.68;;;5.85;;
49392;SDS011;35268;42.642;23.308;2024-02-15T03:26:59;13.95;;;7.15;;
49392;SDS011;35268;42.642;23.308;2024-02-15T03:29:27;15.45;;;6.88;;
49392;SDS011;35268;42.642;23.308;2024-02-15T03:31:54;15.50;;;7.30;;
49392;SDS011;35268;42.642;23.308;2024-02-15T03:34:20;16.00;;;7.07;;
49392;SDS011;35268;42.642;23.308;2024-02-15T03:36:46;12.73;;;6.75;;
49392;SDS011;35268;42.642;23.308;2024-02-15T03:39:16;19.33;;;6.85;;
49392;SDS011;35268;42.642;23.308;2024-02-15T03:41:42;13.23;;;6.45;;
49392;SDS011;35268;42.642;23.308;2024-02-15T03:44:10;12.77;;;6.90;;
49392;SDS011;35268;42.642;23.308;2024-02-15T03:46:36;11.07;;;7.03;;
49392;SDS011;35268;42.642;23.308;2024-02-15T03:49:02;13.75;;;6.68;;
49392;SDS011;35268;42.642;23.308;2024-02-15T03:51:31;12.13;;;6.97;;
49392;SDS011;35268;42.642;23.308;2024-02-15T03:53:57;16.73;;;7.05;;
49392;SDS011;35268;42.642;23.308;2024-02-15T03:56:23;15.07;;;7.35;;
49392;SDS011;35268;42.642;23.308;2024-02-15T03:58:48;13.70;;;7.40;;
49392;SDS011;35268;42.642;23.308;2024-02-15T04:01:17;15.77;;;8.30;;
49392;SDS011;35268;42.642;23.308;2024-02-15T04:03:42;19.48;;;7.82;;
49392;SDS011;35268;42.642;23.308;2024-02-15T04:06:08;16.70;;;8.20;;
49392;SDS011;35268;42.642;23.308;2024-02-15T04:08:35;19.15;;;7.93;;
49392;SDS011;35268;42.642;23.308;2024-02-15T04:11:03;15.23;;;6.70;;
49392;SDS011;35268;42.642;23.308;2024-02-15T04:13:31;11.65;;;7.43;;
49392;SDS011;35268;42.642;23.308;2024-02-15T04:15:57;12.38;;;7.05;;
49392;SDS011;35268;42.642;23.308;2024-02-15T04:18:23;13.45;;;6.80;;
49392;SDS011;35268;42.642;23.308;2024-02-15T04:20:48;13.82;;;7.07;;
49392;SDS011;35268;42.642;23.308;2024-02-15T04:23:13;15.52;;;6.85;;
49392;SDS011;35268;42.642;23.308;2024-02-15T04:25:39;16.08;;;7.55;;
49392;SDS011;35268;42.642;23.308;2024-02-15T04:28:06;11.95;;;6.45;;
49392;SDS011;35268;42.642;23.308;2024-02-15T04:30:33;18.58;;;7.20;;
49392;SDS011;35268;42.642;23.308;2024-02-15T04:33:00;13.13;;;7.53;;
49392;SDS011;35268;42.642;23.308;2024-02-15T04:35:28;21.70;;;7.70;;
49392;SDS011;35268;42.642;23.308;2024-02-15T04:37:55;14.48;;;7.65;;
49392;SDS011;35268;42.642;23.308;2024-02-15T04:40:21;12.00;;;6.82;;
49392;SDS011;35268;42.642;23.308;2024-02-15T04:42:46;12.27;;;7.18;;
49392;SDS011;35268;42.642;23.308;2024-02-15T04:45:12;16.35;;;7.40;;
49392;SDS011;35268;42.642;23.308;2024-02-15T04:47:40;14.55;;;8.15;;
49392;SDS011;35268;42.642;23.308;2024-02-15T04:50:06;20.83;;;7.40;;
49392;SDS011;35268;42.642;23.308;2024-02-15T04:52:32;15.32;;;7.15;;
49392;SDS011;35268;42.642;23.308;2024-02-15T04:54:58;13.38;;;7.18;;
49392;SDS011;35268;42.642;23.308;2024-02-15T04:57:24;12.60;;;7.15;;
49392;SDS011;35268;42.642;23.308;2024-02-15T04:59:53;11.10;;;6.20;;
49392;SDS011;35268;42.642;23.308;2024-02-15T05:02:19;13.88;;;6.63;;
49392;SDS011;35268;42.642;23.308;2024-02-15T05:04:44;13.07;;;6.82;;
49392;SDS011;35268;42.642;23.308;2024-02-15T05:07:10;14.55;;;7.65;;
49392;SDS011;35268;42.642;23.308;2024-02-15T05:09:36;21.92;;;6.63;;
49392;SDS011;35268;42.642;23.308;2024-02-15T05:12:02;15.68;;;7.47;;
49392;SDS011;35268;42.642;23.308;2024-02-15T05:14:28;16.23;;;8.07;;
49392;SDS011;35268;42.642;23.308;2024-02-15T05:16:53;12.38;;;6.60;;
49392;SDS011;35268;42.642;23.308;2024-02-15T05:19:19;14.43;;;6.97;;
49392;SDS011;35268;42.642;23.308;2024-02-15T05:21:45;13.10;;;7.00;;
49392;SDS011;35268;42.642;23.308;2024-02-15T05:24:14;12.75;;;6.30;;
49392;SDS011;35268;42.642;23.308;2024-02-15T05:26:41;17.02;;;7.10;;
49392;SDS011;35268;42.642;23.308;2024-02-15T05:29:14;16.45;;;6.47;;
49392;SDS011;35268;42.642;23.308;2024-02-15T05:31:39;16.95;;;7.32;;
49392;SDS011;35268;42.642;23.308;2024-02-15T05:34:06;12.55;;;6.53;;
49392;SDS011;35268;42.642;23.308;2024-02-15T05:36:33;13.43;;;6.43;;
49392;SDS011;35268;42.642;23.308;2024-02-15T05:38:59;13.80;;;7.25;;
49392;SDS011;35268;42.642;23.308;2024-02-15T05:41:24;12.05;;;6.60;;
49392;SDS011;35268;42.642;23.308;2024-02-15T05:43:50;13.88;;;7.80;;
49392;SDS011;35268;42.642;23.308;2024-02-15T05:46:18;14.05;;;7.07;;
49392;SDS011;35268;42.642;23.308;2024-02-15T05:48:46;14.68;;;7.22;;
49392;SDS011;35268;42.642;23.308;2024-02-15T05:51:12;15.48;;;6.43;;
49392;SDS011;35268;42.642;23.308;2024-02-15T05:53:37;12.13;;;6.68;;
49392;SDS011;35268;42.642;23.308;2024-02-15T05:56:04;17.98;;;7.40;;
49392;SDS011;35268;42.642;23.308;2024-02-15T05:58:31;13.80;;;6.65;;
49392;SDS011;35268;42.642;23.308;2024-02-15T06:00:57;11.52;;;6.15;;
49392;SDS011;35268;42.642;23.308;2024-02-15T06:03:29;14.15;;;6.55;;
49392;SDS011;35268;42.642;23.308;2024-02-15T06:05:56;14.52;;;7.32;;
49392;SDS011;35268;42.642;23.308;2024-02-15T06:08:26;11.27;;;6.25;;
49392;SDS011;35268;42.642;23.308;2024-02-15T06:10:52;12.98;;;6.50;;
49392;SDS011;35268;42.642;23.308;2024-02-15T06:13:18;12.25;;;6.38;;
49392;SDS011;35268;42.642;23.308;2024-02-15T06:15:44;12.80;;;6.18;;
49392;SDS011;35268;42.642;23.308;2024-02-15T06:18:12;13.55;;;6.68;;
49392;SDS011;35268;42.642;23.308;2024-02-15T06:20:39;11.88;;;6.47;;
49392;SDS011;35268;42.642;23.308;2024-02-15T06:23:05;13.05;;;6.35;;
49392;SDS011;35268;42.642;23.308;2024-02-15T06:25:32;14.48;;;6.78;;
49392;SDS011;35268;42.642;23.308;2024-02-15T06:27:58;15.80;;;6.85;;
49392;SDS011;35268;42.642;23.308;2024-02-15T06:30:27;17.58;;;7.88;;
49392;SDS011;35268;42.642;23.308;2024-02-15T06:33:12;19.48;;;6.63;;
49392;SDS011;35268;42.642;23.308;2024-02-15T06:35:55;12.95;;;6.65;;
49392;SDS011;35268;42.642;23.308;2024-02-15T06:38:39;17.50;;;6.20;;
49392;SDS011;35268;42.642;23.308;2024-02-15T06:41:43;17.58;;;6.40;;
49392;SDS011;35268;42.642;23.308;2024-02-15T06:44:08;17.50;;;7.93;;
49392;SDS011;35268;42.642;23.308;2024-02-15T06:46:34;20.88;;;7.68;;
49392;SDS011;35268;42.642;23.308;2024-02-15T06:49:00;16.45;;;7.30;;
49392;SDS011;35268;42.642;23.308;2024-02-15T06:51:25;12.05;;;6.82;;
49392;SDS011;35268;42.642;23.308;2024-02-15T06:53:50;19.42;;;7.28;;
49392;SDS011;35268;42.642;23.308;2024-02-15T06:56:21;16.90;;;7.78;;
49392;SDS011;35268;42.642;23.308;2024-02-15T06:58:47;19.25;;;8.02;;
49392;SDS011;35268;42.642;23.308;2024-02-15T07:01:13;14.93;;;6.97;;
49392;SDS011;35268;42.642;23.308;2024-02-15T07:03:41;16.92;;;7.68;;
49392;SDS011;35268;42.642;23.308;2024-02-15T07:06:09;11.77;;;5.70;;
49392;SDS011;35268;42.642;23.308;2024-02-15T07:08:34;16.80;;;6.65;;
49392;SDS011;35268;42.642;23.308;2024-02-15T07:11:00;15.30;;;6.53;;
49392;SDS011;35268;42.642;23.308;2024-02-15T07:13:27;20.92;;;6.90;;
49392;SDS011;35268;42.642;23.308;2024-02-15T07:15:53;10.48;;;5.38;;
49392;SDS011;35268;42.642;23.308;2024-02-15T07:18:18;16.05;;;7.32;;
49392;SDS011;35268;42.642;23.308;2024-02-15T07:20:47;13.45;;;6.90;;
49392;SDS011;35268;42.642;23.308;2024-02-15T07:23:13;13.73;;;6.22;;
49392;SDS011;35268;42.642;23.308;2024-02-15T07:25:38;10.90;;;5.63;;
49392;SDS011;35268;42.642;23.308;2024-02-15T07:28:04;12.02;;;5.97;;
49392;SDS011;35268;42.642;23.308;2024-02-15T07:30:30;13.48;;;6.25;;
49392;SDS011;35268;42.642;23.308;2024-02-15T07:32:56;16.73;;;7.38;;
49392;SDS011;35268;42.642;23.308;2024-02-15T07:35:22;11.75;;;6.75;;
49392;SDS011;35268;42.642;23.308;2024-02-15T07:37:53;9.93;;;5.57;;
49392;SDS011;35268;42.642;23.308;2024-02-15T07:40:23;11.65;;;5.20;;
49392;SDS011;35268;42.642;23.308;2024-02-15T07:42:54;13.13;;;5.70;;
49392;SDS011;35268;42.642;23.308;2024-02-15T07:45:21;18.50;;;6.63;;
49392;SDS011;35268;42.642;23.308;2024-02-15T07:47:46;17.80;;;7.25;;
49392;SDS011;35268;42.642;23.308;2024-02-15T07:50:17;10.65;;;6.88;;
49392;SDS011;35268;42.642;23.308;2024-02-15T07:52:48;9.77;;;5.88;;
49392;SDS011;35268;42.642;23.308;2024-02-15T07:55:14;13.82;;;5.50;;
49392;SDS011;35268;42.642;23.308;2024-02-15T07:57:39;11.48;;;5.22;;
49392;SDS011;35268;42.642;23.308;2024-02-15T08:00:05;14.45;;;5.88;;
49392;SDS011;35268;42.642;23.308;2024-02-15T08:02:35;14.98;;;6.20;;
49392;SDS011;35268;42.642;23.308;2024-02-15T08:05:05;13.85;;;5.55;;
49392;SDS011;35268;42.642;23.308;2024-02-15T08:07:35;20.00;;;5.85;;
49392;SDS011;35268;42.642;23.308;2024-02-15T08:10:05;12.50;;;5.60;;
49392;SDS011;35268;42.642;23.308;2024-02-15T08:12:37;13.07;;;7.00;;
49392;SDS011;35268;42.642;23.308;2024-02-15T08:15:07;14.65;;;5.88;;
49392;SDS011;35268;42.642;23.308;2024-02-15T08:17:39;19.70;;;8.65;;
49392;SDS011;35268;42.642;23.308;2024-02-15T08:20:11;13.25;;;5.68;;
49392;SDS011;35268;42.642;23.308;2024-02-15T08:22:37;14.68;;;7.45;;
49392;SDS011;35268;42.642;23.308;2024-02-15T08:25:05;16.67;;;6.97;;
49392;SDS011;35268;42.642;23.308;2024-02-15T08:27:41;12.48;;;6.70;;
49392;SDS011;35268;42.642;23.308;2024-02-15T08:30:11;15.00;;;7.00;;
49392;SDS011;35268;42.642;23.308;2024-02-15T08:32:40;16.33;;;6.03;;
49392;SDS011;35268;42.642;23.308;2024-02-15T08:35:10;19.80;;;6.90;;
49392;SDS011;35268;42.642;23.308;2024-02-15T08:37:37;14.50;;;6.43;;
49392;SDS011;35268;42.642;23.308;2024-02-15T08:40:04;14.00;;;6.85;;
49392;SDS011;35268;42.642;23.308;2024-02-15T08:42:35;13.32;;;6.88;;
49392;SDS011;35268;42.642;23.308;2024-02-15T08:45:03;16.00;;;6.78;;
49392;SDS011;35268;42.642;23.308;2024-02-15T08:47:29;20.42;;;6.78;;
49392;SDS011;35268;42.642;23.308;2024-02-15T08:49:54;12.25;;;6.78;;
49392;SDS011;35268;42.642;23.308;2024-02-15T08:52:20;16.23;;;6.38;;
49392;SDS011;35268;42.642;23.308;2024-02-15T08:54:45;17.67;;;6.82;;
49392;SDS011;35268;42.642;23.308;2024-02-15T08:57:11;13.18;;;6.38;;
49392;SDS011;35268;42.642;23.308;2024-02-15T08:59:36;13.98;;;6.97;;
49392;SDS011;35268;42.642;23.308;2024-02-15T09:02:02;16.92;;;6.68;;
49392;SDS011;35268;42.642;23.308;2024-02-15T09:04:30;13.65;;;6.75;;
49392;SDS011;35268;42.642;23.308;2024-02-15T09:06:56;16.45;;;7.10;;
49392;SDS011;35268;42.642;23.308;2024-02-15T09:09:21;15.05;;;6.25;;
49392;SDS011;35268;42.642;23.308;2024-02-15T09:11:47;14.27;;;6.30;;
49392;SDS011;35268;42.642;23.308;2024-02-15T09:14:12;16.80;;;7.35;;
49392;SDS011;35268;42.642;23.308;2024-02-15T09:16:38;27.13;;;8.25;;
49392;SDS011;35268;42.642;23.308;2024-02-15T09:19:04;13.93;;;5.95;;
49392;SDS011;35268;42.642;23.308;2024-02-15T09:21:31;14.00;;;7.40;;
49392;SDS011;35268;42.642;23.308;2024-02-15T09:23:58;14.70;;;6.97;;
49392;SDS011;35268;42.642;23.308;2024-02-15T09:26:24;13.25;;;6.18;;
49392;SDS011;35268;42.642;23.308;2024-02-15T09:28:49;15.30;;;7.20;;
49392;SDS011;35268;42.642;23.308;2024-02-15T09:31:15;12.25;;;6.75;;
49392;SDS011;35268;42.642;23.308;2024-02-15T09:33:40;20.33;;;8.02;;
49392;SDS011;35268;42.642;23.308;2024-02-15T09:36:06;13.93;;;6.57;;
49392;SDS011;35268;42.642;23.308;2024-02-15T09:38:31;11.52;;;5.57;;
49392;SDS011;35268;42.642;23.308;2024-02-15T09:40:57;17.95;;;6.60;;
49392;SDS011;35268;42.642;23.308;2024-02-15T09:43:22;9.63;;;5.38;;
49392;SDS011;35268;42.642;23.308;2024-02-15T09:45:51;14.40;;;6.50;;
49392;SDS011;35268;42.642;23.308;2024-02-15T09:48:18;15.88;;;7.25;;
49392;SDS011;35268;42.642;23.308;2024-02-15T09:50:43;11.77;;;6.15;;
49392;SDS011;35268;42.642;23.308;2024-02-15T09:53:13;17.17;;;7.32;;
49392;SDS011;35268;42.642;23.308;2024-02-15T09:55:40;11.38;;;6.57;;
49392;SDS011;35268;42.642;23.308;2024-02-15T09:58:08;13.25;;;6.10;;
49392;SDS011;35268;42.642;23.308;2024-02-15T10:00:34;14.18;;;6.28;;
49392;SDS011;35268;42.642;23.308;2024-02-15T10:03:00;18.70;;;6.55;;
49392;SDS011;35268;42.642;23.308;2024-02-15T10:05:30;15.50;;;7.47;;
49392;SDS011;35268;42.642;23.308;2024-02-15T10:07:56;15.50;;;6.63;;
49392;SDS011;35268;42.642;23.308;2024-02-15T10:10:22;15.75;;;7.10;;
49392;SDS011;35268;42.642;23.308;2024-02-15T10:12:50;15.05;;;7.30;;
49392;SDS011;35268;42.642;23.308;2024-02-15T10:17:57;13.52;;;6.05;;
49392;SDS011;35268;42.642;23.308;2024-02-15T10:20:24;18.88;;;6.47;;
49392;SDS011;35268;42.642;23.308;2024-02-15T10:23:11;9.93;;;6.18;;
49392;SDS011;35268;42.642;23.308;2024-02-15T10:25:38;14.35;;;6.30;;
49392;SDS011;35268;42.642;23.308;2024-02-15T10:28:05;16.13;;;6.75;;
49392;SDS011;35268;42.642;23.308;2024-02-15T10:30:35;13.32;;;6.38;;
49392;SDS011;35268;42.642;23.308;2024-02-15T10:33:02;19.63;;;6.50;;
49392;SDS011;35268;42.642;23.308;2024-02-15T10:35:28;19.42;;;7.38;;
49392;SDS011;35268;42.642;23.308;2024-02-15T10:38:04;11.90;;;6.65;;
49392;SDS011;35268;42.642;23.308;2024-02-15T10:40:32;17.00;;;7.50;;
49392;SDS011;35268;42.642;23.308;2024-02-15T10:42:58;9.32;;;5.70;;
49392;SDS011;35268;42.642;23.308;2024-02-15T10:45:24;14.88;;;7.60;;
49392;SDS011;35268;42.642;23.308;2024-02-15T10:47:50;16.42;;;7.22;;
49392;SDS011;35268;42.642;23.308;2024-02-15T10:50:17;17.08;;;6.90;;
49392;SDS011;35268;42.642;23.308;2024-02-15T10:52:43;15.30;;;7.45;;
49392;SDS011;35268;42.642;23.308;2024-02-15T10:55:40;11.73;;;6.30;;
49392;SDS011;35268;42.642;23.308;2024-02-15T10:58:19;11.80;;;6.22;;
49392;SDS011;35268;42.642;23.308;2024-02-15T11:00:46;14.20;;;6.80;;
49392;SDS011;35268;42.642;23.308;2024-02-15T11:03:16;20.17;;;6.63;;
49392;SDS011;35268;42.642;23.308;2024-02-15T11:05:49;11.38;;;6.10;;
49392;SDS011;35268;42.642;23.308;2024-02-15T11:08:15;15.68;;;5.47;;
49392;SDS011;35268;42.642;23.308;2024-02-15T11:10:42;11.38;;;5.93;;
49392;SDS011;35268;42.642;23.308;2024-02-15T11:13:08;11.80;;;5.35;;
49392;SDS011;35268;42.642;23.308;2024-02-15T11:18:00;14.65;;;5.80;;
49392;SDS011;35268;42.642;23.308;2024-02-15T11:22:58;21.73;;;6.68;;
49392;SDS011;35268;42.642;23.308;2024-02-15T11:25:37;13.43;;;5.05;;
49392;SDS011;35268;42.642;23.308;2024-02-15T11:30:54;18.67;;;6.07;;
49392;SDS011;35268;42.642;23.308;2024-02-15T11:33:29;11.50;;;5.65;;
49392;SDS011;35268;42.642;23.308;2024-02-15T11:36:08;9.65;;;4.85;;
49392;SDS011;35268;42.642;23.308;2024-02-15T11:38:36;7.95;;;4.25;;
49392;SDS011;35268;42.642;23.308;2024-02-15T11:41:05;8.55;;;4.53;;
49392;SDS011;35268;42.642;23.308;2024-02-15T11:46:16;9.90;;;4.80;;
49392;SDS011;35268;42.642;23.308;2024-02-15T11:48:46;17.45;;;5.63;;
49392;SDS011;35268;42.642;23.308;2024-02-15T11:51:24;14.23;;;5.30;;
49392;SDS011;35268;42.642;23.308;2024-02-15T11:54:07;11.32;;;4.10;;
49392;SDS011;35268;42.642;23.308;2024-02-15T11:56:54;8.80;;;4.70;;
49392;SDS011;35268;42.642;23.308;2024-02-15T11:59:41;8.52;;;4.63;;
49392;SDS011;35268;42.642;23.308;2024-02-15T12:02:39;9.18;;;4.40;;
49392;SDS011;35268;42.642;23.308;2024-02-15T12:05:23;10.13;;;4.63;;
49392;SDS011;35268;42.642;23.308;2024-02-15T12:08:07;11.82;;;4.65;;
49392;SDS011;35268;42.642;23.308;2024-02-15T12:11:00;11.30;;;4.53;;
49392;SDS011;35268;42.642;23.308;2024-02-15T12:13:49;9.77;;;4.07;;
49392;SDS011;35268;42.642;23.308;2024-02-15T12:16:35;11.98;;;4.45;;
49392;SDS011;35268;42.642;23.308;2024-02-15T12:19:19;7.82;;;4.57;;
49392;SDS011;35268;42.642;23.308;2024-02-15T12:21:46;6.82;;;3.78;;
49392;SDS011;35268;42.642;23.308;2024-02-15T12:24:12;8.25;;;4.50;;
49392;SDS011;35268;42.642;23.308;2024-02-15T12:26:38;10.18;;;5.28;;
49392;SDS011;35268;42.642;23.308;2024-02-15T12:29:06;8.27;;;3.90;;
49392;SDS011;35268;42.642;23.308;2024-02-15T12:31:33;10.40;;;4.35;;
49392;SDS011;35268;42.642;23.308;2024-02-15T12:34:04;13.70;;;4.70;;
49392;SDS011;35268;42.642;23.308;2024-02-15T12:36:32;10.38;;;4.32;;
49392;SDS011;35268;42.642;23.308;2024-02-15T12:39:03;10.15;;;4.18;;
49392;SDS011;35268;42.642;23.308;2024-02-15T12:41:40;11.18;;;4.28;;
49392;SDS011;35268;42.642;23.308;2024-02-15T12:44:06;6.65;;;3.30;;
49392;SDS011;35268;42.642;23.308;2024-02-15T12:46:33;17.20;;;4.38;;
49392;SDS011;35268;42.642;23.308;2024-02-15T12:49:11;5.68;;;3.78;;
49392;SDS011;35268;42.642;23.308;2024-02-15T12:51:53;11.38;;;4.07;;
49392;SDS011;35268;42.642;23.308;2024-02-15T12:54:38;9.68;;;4.05;;
49392;SDS011;35268;42.642;23.308;2024-02-15T12:57:08;9.57;;;3.90;;
49392;SDS011;35268;42.642;23.308;2024-02-15T12:59:35;7.38;;;4.43;;
49392;SDS011;35268;42.642;23.308;2024-02-15T13:02:02;7.63;;;3.95;;
49392;SDS011;35268;42.642;23.308;2024-02-15T13:04:28;10.32;;;4.22;;
49392;SDS011;35268;42.642;23.308;2024-02-15T13:06:54;7.15;;;4.40;;
49392;SDS011;35268;42.642;23.308;2024-02-15T13:09:19;15.15;;;4.80;;
49392;SDS011;35268;42.642;23.308;2024-02-15T13:11:47;9.73;;;4.25;;
49392;SDS011;35268;42.642;23.308;2024-02-15T13:14:15;10.20;;;4.70;;
49392;SDS011;35268;42.642;23.308;2024-02-15T13:16:40;9.20;;;4.60;;
49392;SDS011;35268;42.642;23.308;2024-02-15T13:19:08;8.00;;;4.15;;
49392;SDS011;35268;42.642;23.308;2024-02-15T13:21:33;9.00;;;4.45;;
49392;SDS011;35268;42.642;23.308;2024-02-15T13:23:59;9.32;;;4.38;;
49392;SDS011;35268;42.642;23.308;2024-02-15T13:26:29;12.38;;;4.80;;
49392;SDS011;35268;42.642;23.308;2024-02-15T13:28:55;9.95;;;4.40;;
49392;SDS011;35268;42.642;23.308;2024-02-15T13:31:21;6.47;;;3.72;;
49392;SDS011;35268;42.642;23.308;2024-02-15T13:33:47;7.53;;;4.18;;
49392;SDS011;35268;42.642;23.308;2024-02-15T13:36:13;10.40;;;4.50;;
49392;SDS011;35268;42.642;23.308;2024-02-15T13:38:40;8.80;;;4.55;;
49392;SDS011;35268;42.642;23.308;2024-02-15T13:41:07;9.75;;;4.57;;
49392;SDS011;35268;42.642;23.308;2024-02-15T13:43:33;11.43;;;4.60;;
49392;SDS011;35268;42.642;23.308;2024-02-15T13:45:59;9.15;;;4.28;;
49392;SDS011;35268;42.642;23.308;2024-02-15T13:48:25;8.43;;;3.95;;
49392;SDS011;35268;42.642;23.308;2024-02-15T13:50:55;6.25;;;3.83;;
49392;SDS011;35268;42.642;23.308;2024-02-15T13:53:20;8.25;;;4.20;;
49392;SDS011;35268;42.642;23.308;2024-02-15T13:55:46;11.65;;;4.20;;
49392;SDS011;35268;42.642;23.308;2024-02-15T13:58:12;7.75;;;4.07;;
49392;SDS011;35268;42.642;23.308;2024-02-15T14:00:37;11.02;;;4.78;;
49392;SDS011;35268;42.642;23.308;2024-02-15T14:03:05;10.05;;;3.83;;
49392;SDS011;35268;42.642;23.308;2024-02-15T14:05:31;10.90;;;4.93;;
49392;SDS011;35268;42.642;23.308;2024-02-15T14:07:58;8.32;;;3.60;;
49392;SDS011;35268;42.642;23.308;2024-02-15T14:10:27;7.18;;;3.47;;
49392;SDS011;35268;42.642;23.308;2024-02-15T14:12:56;8.95;;;4.07;;
49392;SDS011;35268;42.642;23.308;2024-02-15T14:15:32;16.17;;;3.90;;
49392;SDS011;35268;42.642;23.308;2024-02-15T14:18:05;7.50;;;3.45;;
49392;SDS011;35268;42.642;23.308;2024-02-15T14:20:35;11.98;;;4.13;;
49392;SDS011;35268;42.642;23.308;2024-02-15T14:23:01;12.13;;;4.25;;
49392;SDS011;35268;42.642;23.308;2024-02-15T14:25:30;9.63;;;4.50;;
49392;SDS011;35268;42.642;23.308;2024-02-15T14:27:57;8.38;;;4.38;;
49392;SDS011;35268;42.642;23.308;2024-02-15T14:30:23;9.48;;;3.95;;
49392;SDS011;35268;42.642;23.308;2024-02-15T14:33:08;9.50;;;4.13;;
49392;SDS011;35268;42.642;23.308;2024-02-15T14:35:36;10.60;;;4.40;;
49392;SDS011;35268;42.642;23.308;2024-02-15T14:38:06;11.30;;;4.60;;
49392;SDS011;35268;42.642;23.308;2024-02-15T14:40:36;7.13;;;4.13;;
49392;SDS011;35268;42.642;23.308;2024-02-15T14:43:03;8.40;;;4.00;;